createdAt,value
2022-08-08T00:00:53.279Z,4.03
2022-08-08T00:03:32.338Z,3.65
2022-08-08T00:06:04.586Z,3.45
2022-08-08T00:08:53.273Z,3.63
2022-08-08T00:11:46.513Z,4.00
2022-08-08T00:15:00.053Z,4.22
2022-08-08T00:18:03.293Z,4.10
2022-08-08T00:20:41.268Z,4.10
2022-08-08T00:23:43.154Z,4.55
2022-08-08T00:26:30.930Z,4.50
2022-08-08T00:29:44.927Z,4.38
2022-08-08T00:32:45.799Z,4.38
2022-08-08T00:35:48.829Z,4.60
2022-08-08T00:38:51.612Z,4.60
2022-08-08T00:42:08.851Z,4.10
2022-08-08T00:45:32.412Z,4.20
2022-08-08T00:48:40.659Z,4.43
2022-08-08T00:51:15.177Z,4.32
2022-08-08T00:54:21.098Z,4.30
2022-08-08T00:57:34.106Z,4.47
2022-08-08T01:00:22.310Z,4.47
2022-08-08T01:04:02.320Z,4.55
2022-08-08T01:06:40.807Z,4.30
2022-08-08T01:09:41.575Z,4.68
2022-08-08T01:12:29.821Z,4.60
2022-08-08T01:15:43.317Z,4.40
2022-08-08T01:18:54.144Z,4.55
2022-08-08T01:22:13.458Z,4.10
2022-08-08T01:25:09.699Z,4.50
2022-08-08T01:28:15.628Z,4.25
2022-08-08T01:32:13.375Z,4.70
2022-08-08T01:34:09.648Z,4.07
2022-08-08T01:36:43.559Z,4.78
2022-08-08T01:39:53.572Z,4.95
2022-08-08T01:42:46.831Z,5.18
2022-08-08T01:45:23.349Z,4.95
2022-08-08T01:48:27.792Z,5.10
2022-08-08T01:52:32.592Z,4.65
2022-08-08T01:55:19.229Z,5.00
2022-08-08T01:58:10.946Z,5.10
2022-08-08T02:01:16.094Z,5.50
2022-08-08T02:04:16.852Z,5.15
2022-08-08T02:07:07.181Z,5.28
2022-08-08T02:10:14.356Z,5.70
2022-08-08T02:13:06.653Z,5.47
2022-08-08T02:15:43.834Z,5.03
2022-08-08T02:18:14.199Z,5.25
2022-08-08T02:21:26.470Z,5.45
2022-08-08T02:24:28.818Z,5.40
2022-08-08T02:27:10.901Z,5.20
2022-08-08T02:30:00.864Z,5.15
2022-08-08T02:33:01.205Z,6.00
2022-08-08T02:36:05.243Z,6.22
2022-08-08T02:41:59.204Z,5.40
2022-08-08T02:44:57.168Z,5.93
2022-08-08T02:47:55.904Z,5.13
2022-08-08T02:50:35.552Z,5.93
2022-08-08T02:53:26.223Z,5.22
2022-08-08T02:56:32.140Z,5.40
2022-08-08T02:59:37.651Z,5.53
2022-08-08T03:02:30.588Z,5.10
2022-08-08T03:05:46.635Z,5.10
2022-08-08T03:08:37.366Z,5.30
2022-08-08T03:12:01.512Z,5.20
2022-08-08T03:15:56.988Z,5.25
2022-08-08T03:18:05.007Z,6.10
2022-08-08T03:20:51.353Z,5.03
2022-08-08T03:23:23.803Z,5.47
2022-08-08T03:25:58.429Z,5.38
2022-08-08T03:28:43.487Z,5.07
2022-08-08T03:32:06.674Z,4.90
2022-08-08T03:34:19.990Z,5.07
2022-08-08T03:36:52.305Z,5.00
2022-08-08T03:39:21.761Z,5.47
2022-08-08T03:44:40.961Z,5.00
2022-08-08T03:47:22.094Z,5.25
2022-08-08T03:50:00.360Z,5.38
2022-08-08T03:52:35.222Z,5.43
2022-08-08T03:55:56.536Z,5.20
2022-08-08T03:58:31.854Z,5.20
2022-08-08T04:01:02.098Z,5.22
2022-08-08T04:03:57.837Z,5.20
2022-08-08T04:06:31.088Z,5.55
2022-08-08T04:09:08.841Z,5.35
2022-08-08T04:11:57.659Z,4.80
2022-08-08T04:14:46.845Z,5.32
2022-08-08T04:17:45.687Z,5.75
2022-08-08T04:20:08.305Z,5.50
2022-08-08T04:22:38.067Z,5.40
2022-08-08T04:25:08.710Z,5.05
2022-08-08T04:28:34.498Z,5.68
2022-08-08T04:30:36.628Z,5.55
2022-08-08T04:33:12.423Z,5.60
2022-08-08T04:35:51.311Z,5.45
2022-08-08T04:40:54.487Z,5.35
2022-08-08T04:43:32.449Z,5.55
2022-08-08T04:46:15.218Z,5.35
2022-08-08T04:48:43.719Z,5.85
2022-08-08T04:51:12.073Z,5.80
2022-08-08T04:54:27.629Z,5.05
2022-08-08T04:56:32.958Z,5.28
2022-08-08T04:59:02.545Z,5.68
2022-08-08T05:01:35.282Z,5.68
2022-08-08T05:04:11.081Z,5.18
2022-08-08T05:06:45.263Z,5.55
2022-08-08T05:09:13.394Z,5.60
2022-08-08T05:11:47.670Z,5.05
2022-08-08T05:14:26.099Z,5.43
2022-08-08T05:17:21.642Z,5.13
2022-08-08T05:20:10.148Z,5.78
2022-08-08T05:22:43.373Z,5.75
2022-08-08T05:25:12.750Z,5.53
2022-08-08T05:27:45.570Z,5.43
2022-08-08T05:30:28.542Z,6.13
2022-08-08T05:32:58.205Z,5.30
2022-08-08T05:35:39.698Z,5.78
2022-08-08T05:38:31.911Z,5.88
2022-08-08T05:41:10.833Z,5.75
2022-08-08T05:44:03.963Z,5.78
2022-08-08T05:46:36.149Z,5.18
2022-08-08T05:49:11.287Z,5.90
2022-08-08T05:51:49.047Z,5.70
2022-08-08T05:54:27.539Z,5.80
2022-08-08T05:57:57.551Z,5.55
2022-08-08T06:00:25.076Z,5.82
2022-08-08T06:03:17.514Z,5.63
2022-08-08T06:06:06.654Z,5.28
2022-08-08T06:08:54.815Z,6.10
2022-08-08T06:11:28.275Z,5.40
2022-08-08T06:13:57.883Z,5.78
2022-08-08T06:16:30.238Z,6.13
2022-08-08T06:19:19.913Z,6.30
2022-08-08T06:21:57.485Z,6.03
2022-08-08T06:24:40.188Z,5.70
2022-08-08T06:27:18.132Z,6.50
2022-08-08T06:30:07.276Z,6.82
2022-08-08T06:32:55.168Z,7.15
2022-08-08T06:36:06.807Z,7.35
2022-08-08T06:38:28.874Z,7.20
2022-08-08T06:41:08.290Z,7.53
2022-08-08T06:43:47.642Z,7.03
2022-08-08T06:46:29.960Z,6.68
2022-08-08T06:49:00.876Z,7.72
2022-08-08T06:51:46.769Z,7.80
2022-08-08T06:54:22.471Z,7.88
2022-08-08T06:56:57.500Z,7.47
2022-08-08T06:59:28.431Z,8.15
2022-08-08T07:02:28.922Z,7.45
2022-08-08T07:05:11.710Z,7.60
2022-08-08T07:08:04.538Z,7.55
2022-08-08T07:10:42.075Z,7.28
2022-08-08T07:13:33.175Z,7.60
2022-08-08T07:16:10.767Z,7.25
2022-08-08T07:19:09.228Z,8.15
2022-08-08T07:22:00.537Z,8.98
2022-08-08T07:24:44.502Z,10.27
2022-08-08T07:27:17.110Z,8.15
2022-08-08T07:30:02.702Z,8.10
2022-08-08T07:32:39.812Z,7.15
2022-08-08T07:35:11.173Z,6.95
2022-08-08T07:37:55.613Z,6.30
2022-08-08T07:40:43.775Z,6.53
2022-08-08T07:43:14.229Z,6.20
2022-08-08T07:46:05.818Z,6.20
2022-08-08T07:48:35.802Z,6.07
2022-08-08T07:51:04.648Z,6.55
2022-08-08T07:54:01.022Z,6.57
2022-08-08T07:56:59.952Z,5.68
2022-08-08T07:59:37.728Z,5.03
2022-08-08T08:02:33.537Z,5.60
2022-08-08T08:05:04.314Z,5.88
2022-08-08T08:07:52.844Z,5.38
2022-08-08T08:10:30.279Z,5.22
2022-08-08T08:13:25.722Z,5.13
2022-08-08T08:16:23.170Z,5.07
2022-08-08T08:18:58.611Z,5.25
2022-08-08T08:21:57.771Z,4.70
2022-08-08T08:24:42.787Z,5.00
2022-08-08T08:27:12.302Z,4.75
2022-08-08T08:29:43.676Z,4.97
2022-08-08T08:32:31.467Z,4.75
2022-08-08T08:35:06.534Z,4.57
2022-08-08T08:37:53.051Z,4.32
2022-08-08T08:40:25.173Z,4.35
2022-08-08T08:42:55.900Z,3.83
2022-08-08T08:45:26.301Z,4.60
2022-08-08T08:48:01.088Z,4.20
2022-08-08T08:50:35.515Z,4.47
2022-08-08T08:53:40.815Z,4.10
2022-08-08T08:56:08.514Z,3.22
2022-08-08T08:58:46.511Z,3.60
2022-08-08T09:01:27.443Z,3.80
2022-08-08T09:04:00.412Z,3.20
2022-08-08T09:06:50.104Z,3.60
2022-08-08T09:09:40.262Z,3.50
2022-08-08T09:12:20.441Z,3.72
2022-08-08T09:14:58.815Z,2.92
2022-08-08T09:17:41.489Z,3.05
2022-08-08T09:22:02.440Z,3.00
2022-08-08T09:23:10.494Z,2.78
2022-08-08T09:25:57.844Z,2.80
2022-08-08T09:28:38.596Z,2.78
2022-08-08T09:31:56.051Z,2.65
2022-08-08T09:34:34.234Z,2.50
2022-08-08T09:37:58.962Z,2.60
2022-08-08T09:40:10.521Z,2.40
2022-08-08T09:42:51.597Z,2.50
2022-08-08T09:45:55.012Z,2.50
2022-08-08T09:48:22.778Z,2.33
2022-08-08T09:51:05.151Z,2.30
2022-08-08T09:53:59.724Z,2.17
2022-08-08T09:56:40.985Z,2.45
2022-08-08T10:00:02.172Z,2.38
2022-08-08T10:02:12.763Z,2.40
2022-08-08T10:04:47.787Z,2.45
2022-08-08T10:07:17.020Z,2.20
2022-08-08T10:09:59.879Z,2.17
2022-08-08T10:12:53.140Z,1.90
2022-08-08T10:15:27.421Z,1.98
2022-08-08T10:18:09.071Z,1.83
2022-08-08T10:20:57.349Z,2.20
2022-08-08T10:23:58.742Z,1.70
2022-08-08T10:26:58.563Z,1.90
2022-08-08T10:29:59.910Z,2.00
2022-08-08T10:32:34.142Z,1.80
2022-08-08T10:36:06.651Z,2.10
2022-08-08T10:38:19.269Z,2.17
2022-08-08T10:41:06.918Z,2.13
2022-08-08T10:43:40.330Z,2.05
2022-08-08T10:46:30.197Z,1.83
2022-08-08T10:48:59.553Z,2.00
2022-08-08T10:51:40.840Z,1.80
2022-08-08T10:54:25.152Z,1.80
2022-08-08T10:56:57.953Z,1.90
2022-08-08T10:59:30.873Z,1.73
2022-08-08T11:01:59.784Z,1.85
2022-08-08T11:04:29.415Z,1.98
2022-08-08T11:07:00.989Z,2.03
2022-08-08T11:09:32.255Z,2.42
2022-08-08T11:12:12.753Z,2.30
2022-08-08T11:15:00.052Z,1.92
2022-08-08T11:18:00.182Z,2.08
2022-08-08T11:20:28.900Z,2.40
2022-08-08T11:23:05.242Z,2.30
2022-08-08T11:25:52.477Z,2.72
2022-08-08T11:31:03.699Z,1.63
2022-08-08T11:33:53.481Z,2.10
2022-08-08T11:36:23.179Z,1.75
2022-08-08T11:38:57.978Z,1.77
2022-08-08T11:41:39.416Z,1.70
2022-08-08T11:44:14.958Z,1.60
2022-08-08T11:46:43.383Z,1.60
2022-08-08T11:49:14.093Z,1.40
2022-08-08T11:51:50.045Z,1.75
2022-08-08T11:54:44.797Z,1.40
2022-08-08T11:57:30.146Z,1.50
2022-08-08T12:00:07.245Z,1.60
2022-08-08T12:02:51.915Z,1.70
2022-08-08T12:05:30.497Z,1.30
2022-08-08T12:08:01.668Z,1.40
2022-08-08T12:10:30.599Z,1.10
2022-08-08T12:13:14.261Z,1.20
2022-08-08T12:15:51.478Z,1.40
2022-08-08T12:18:27.627Z,1.20
2022-08-08T12:20:58.973Z,1.15
2022-08-08T12:23:40.726Z,1.05
2022-08-08T12:26:27.734Z,1.10
2022-08-08T12:29:21.220Z,1.10
2022-08-08T12:32:20.378Z,1.20
2022-08-08T12:35:04.838Z,1.40
2022-08-08T12:38:01.998Z,1.10
2022-08-08T12:40:57.025Z,1.27
2022-08-08T12:43:47.724Z,1.10
2022-08-08T12:46:28.685Z,1.20
2022-08-08T12:51:59.150Z,1.30
2022-08-08T12:54:39.297Z,1.10
2022-08-08T12:57:20.850Z,1.10
2022-08-08T13:00:04.925Z,1.20
2022-08-08T13:03:54.075Z,0.80
2022-08-08T13:06:56.811Z,1.08
2022-08-08T13:14:15.323Z,1.00
2022-08-08T13:16:43.432Z,1.15
2022-08-08T13:19:17.840Z,1.10
2022-08-08T13:21:52.660Z,1.10
2022-08-08T13:24:38.550Z,1.00
2022-08-08T13:27:14.760Z,1.20
2022-08-08T13:30:00.998Z,1.20
2022-08-08T13:32:35.909Z,1.40
2022-08-08T13:35:24.456Z,1.25
2022-08-08T13:38:06.844Z,1.20
2022-08-08T13:40:36.121Z,1.40
2022-08-08T13:43:09.389Z,1.48
2022-08-08T13:48:13.247Z,1.50
2022-08-08T13:50:55.100Z,2.00
2022-08-08T13:53:31.418Z,2.30
2022-08-08T13:56:05.858Z,2.30
2022-08-08T13:58:34.531Z,2.47
2022-08-08T14:01:18.673Z,2.30
2022-08-08T14:03:57.557Z,2.53
2022-08-08T14:06:32.936Z,2.45
2022-08-08T14:09:25.134Z,2.47
2022-08-08T14:11:49.824Z,2.28
2022-08-08T14:14:20.542Z,2.03
2022-08-08T14:16:50.248Z,2.58
2022-08-08T14:19:22.868Z,2.20
2022-08-08T14:22:20.635Z,2.25
2022-08-08T14:24:54.649Z,2.13
2022-08-08T14:27:28.798Z,2.38
2022-08-08T14:30:18.882Z,2.15
2022-08-08T14:32:47.822Z,1.90
2022-08-08T14:35:34.984Z,2.20
2022-08-08T14:38:34.412Z,2.42
2022-08-08T14:40:59.621Z,2.30
2022-08-08T14:44:02.885Z,2.08
2022-08-08T14:46:31.073Z,2.15
2022-08-08T14:49:09.126Z,2.20
2022-08-08T14:51:53.203Z,2.10
2022-08-08T14:54:29.178Z,1.95
2022-08-08T14:56:58.600Z,1.80
2022-08-08T14:59:50.942Z,2.22
2022-08-08T15:02:25.801Z,2.45
2022-08-08T15:05:07.956Z,2.15
2022-08-08T15:07:40.657Z,2.05
2022-08-08T15:10:11.661Z,2.40
2022-08-08T15:12:41.592Z,2.35
2022-08-08T15:16:02.589Z,3.22
2022-08-08T15:18:10.563Z,3.92
2022-08-08T15:20:40.772Z,3.88
2022-08-08T15:23:09.194Z,3.90
2022-08-08T15:25:42.544Z,6.00
2022-08-08T15:31:00.416Z,7.35
2022-08-08T15:33:38.709Z,10.50
2022-08-08T15:36:17.783Z,7.18
2022-08-08T15:38:49.760Z,5.63
2022-08-08T15:41:24.806Z,4.55
2022-08-08T15:44:02.514Z,3.88
2022-08-08T15:46:34.868Z,3.00
2022-08-08T15:49:08.193Z,3.00
2022-08-08T15:51:40.724Z,2.42
2022-08-08T15:54:18.339Z,2.17
2022-08-08T15:57:02.286Z,2.30
2022-08-08T16:00:25.585Z,2.60
2022-08-08T16:02:18.191Z,2.30
2022-08-08T16:04:46.714Z,2.17
2022-08-08T16:07:24.392Z,2.08
2022-08-08T16:13:03.134Z,1.77
2022-08-08T16:13:03.964Z,1.90
2022-08-08T16:15:58.574Z,2.30
2022-08-08T16:18:32.991Z,2.10
2022-08-08T16:21:01.271Z,4.10
2022-08-08T16:23:32.203Z,2.13
2022-08-08T16:26:04.151Z,1.92
2022-08-08T16:28:35.855Z,2.00
2022-08-08T16:31:07.636Z,2.00
2022-08-08T16:33:38.823Z,2.10
2022-08-08T16:36:33.469Z,1.70
2022-08-08T16:39:16.777Z,1.75
2022-08-08T16:42:01.160Z,2.03
2022-08-08T16:44:33.735Z,1.92
2022-08-08T16:47:21.881Z,2.20
2022-08-08T16:50:11.119Z,1.95
2022-08-08T16:55:02.048Z,1.80
2022-08-08T16:55:53.904Z,2.08
2022-08-08T16:58:25.679Z,1.92
2022-08-08T17:01:17.050Z,1.98
2022-08-08T17:03:58.621Z,2.00
2022-08-08T17:06:37.374Z,2.20
2022-08-08T17:09:14.619Z,1.88
2022-08-08T17:11:55.615Z,1.80
2022-08-08T17:14:34.209Z,2.13
2022-08-08T17:17:41.721Z,2.10
2022-08-08T17:19:58.071Z,2.63
2022-08-08T17:22:38.918Z,1.90
2022-08-08T17:25:08.562Z,1.42
2022-08-08T17:27:46.189Z,1.88
2022-08-08T17:30:27.276Z,1.58
2022-08-08T17:34:53.980Z,1.58
2022-08-08T17:35:55.173Z,1.52
2022-08-08T17:38:32.660Z,1.67
2022-08-08T17:41:00.558Z,1.70
2022-08-08T17:43:30.852Z,1.67
2022-08-08T17:46:37.934Z,1.52
2022-08-08T17:49:07.085Z,1.55
2022-08-08T17:51:39.844Z,2.47
2022-08-08T17:54:21.919Z,1.63
2022-08-08T17:56:51.303Z,2.33
2022-08-08T17:59:23.459Z,1.73
2022-08-08T18:02:11.154Z,1.63
2022-08-08T18:04:50.958Z,1.70
2022-08-08T18:08:01.965Z,2.50
2022-08-08T18:10:14.054Z,1.67
2022-08-08T18:12:42.892Z,2.80
2022-08-08T18:15:14.448Z,2.67
2022-08-08T18:18:09.828Z,2.20
2022-08-08T18:20:54.850Z,1.50
2022-08-08T18:23:23.588Z,1.50
2022-08-08T18:25:51.679Z,1.50
2022-08-08T18:28:19.242Z,1.38
2022-08-08T18:30:53.480Z,1.52
2022-08-08T18:34:10.487Z,1.50
2022-08-08T18:36:18.926Z,1.70
2022-08-08T18:38:53.830Z,1.50
2022-08-08T18:41:51.464Z,1.88
2022-08-08T18:46:54.274Z,1.50
2022-08-08T18:49:32.542Z,1.50
2022-08-08T18:52:18.518Z,1.52
2022-08-08T18:54:59.282Z,1.80
2022-08-08T18:57:31.875Z,1.90
2022-08-08T19:00:16.862Z,1.63
2022-08-08T19:02:56.566Z,1.70
2022-08-08T19:05:30.565Z,1.73
2022-08-08T19:08:36.990Z,1.90
2022-08-08T19:11:22.351Z,1.83
2022-08-08T19:13:56.841Z,1.80
2022-08-08T19:16:32.091Z,1.95
2022-08-08T19:19:14.020Z,1.70
2022-08-08T19:21:48.935Z,1.55
2022-08-08T19:24:41.741Z,1.65
2022-08-08T19:27:07.696Z,1.95
2022-08-08T19:29:40.737Z,2.08
2022-08-08T19:32:19.323Z,2.00
2022-08-08T19:34:51.324Z,1.97
2022-08-08T19:37:42.701Z,2.03
2022-08-08T19:40:16.015Z,1.80
2022-08-08T19:42:49.184Z,2.10
2022-08-08T19:45:59.331Z,2.08
2022-08-08T19:48:30.678Z,2.20
2022-08-08T19:51:08.162Z,2.15
2022-08-08T19:53:51.069Z,3.90
2022-08-08T19:56:25.759Z,5.05
2022-08-08T19:59:10.395Z,3.95
2022-08-08T20:02:02.381Z,4.70
2022-08-08T20:04:31.555Z,3.80
2022-08-08T20:09:55.910Z,2.80
2022-08-08T20:12:32.142Z,3.20
2022-08-08T20:15:16.804Z,3.00
2022-08-08T20:17:47.339Z,3.50
2022-08-08T20:20:20.457Z,3.47
2022-08-08T20:22:54.235Z,3.70
2022-08-08T20:25:24.633Z,3.33
2022-08-08T20:27:55.444Z,3.92
2022-08-08T20:30:53.368Z,3.50
2022-08-08T20:35:58.030Z,3.95
2022-08-08T20:38:32.886Z,3.67
2022-08-08T20:41:16.952Z,3.45
2022-08-08T20:43:49.792Z,3.63
2022-08-08T20:46:25.768Z,3.78
2022-08-08T20:48:58.367Z,3.83
2022-08-08T20:51:32.431Z,4.50
2022-08-08T20:54:10.528Z,4.70
2022-08-08T20:57:05.814Z,3.92
2022-08-08T20:59:29.982Z,3.88
2022-08-08T21:02:06.771Z,4.63
2022-08-08T21:04:36.622Z,3.97
2022-08-08T21:07:08.252Z,5.07
2022-08-08T21:10:02.197Z,4.35
2022-08-08T21:12:32.108Z,4.50
2022-08-08T21:15:16.311Z,5.47
2022-08-08T21:18:03.309Z,5.15
2022-08-08T21:20:34.154Z,5.13
2022-08-08T21:23:03.029Z,5.50
2022-08-08T21:28:16.459Z,5.47
2022-08-08T21:31:00.520Z,5.25
2022-08-08T21:33:48.166Z,5.38
2022-08-08T21:36:20.952Z,5.78
2022-08-08T21:39:00.020Z,5.40
2022-08-08T21:41:43.007Z,6.38
2022-08-08T21:44:19.429Z,5.78
2022-08-08T21:48:16.311Z,5.10
2022-08-08T21:49:37.376Z,5.18
2022-08-08T21:54:33.970Z,5.68
2022-08-08T21:55:03.516Z,5.35
2022-08-08T21:57:42.029Z,5.90
2022-08-08T22:00:17.266Z,5.25
2022-08-08T22:02:54.120Z,5.88
2022-08-08T22:05:22.736Z,6.60
2022-08-08T22:07:50.609Z,7.07
2022-08-08T22:10:28.660Z,6.10
2022-08-08T22:13:17.814Z,5.93
2022-08-08T22:15:59.066Z,5.32
2022-08-08T22:18:30.314Z,5.72
2022-08-08T22:21:13.904Z,6.20
2022-08-08T22:23:51.603Z,5.85
2022-08-08T22:26:30.720Z,5.65
2022-08-08T22:29:13.484Z,6.15
2022-08-08T22:31:58.588Z,5.53
2022-08-08T22:34:39.486Z,5.68
2022-08-08T22:37:27.536Z,5.35
2022-08-08T22:40:00.918Z,5.25
2022-08-08T22:42:34.286Z,5.50
2022-08-08T22:45:12.171Z,5.75
2022-08-08T22:47:46.630Z,5.40
2022-08-08T22:50:25.414Z,5.53
2022-08-08T22:54:15.777Z,5.40
2022-08-08T22:55:58.292Z,5.43
2022-08-08T22:58:33.770Z,5.60
2022-08-08T23:01:16.700Z,5.43
2022-08-08T23:03:59.536Z,5.47
2022-08-08T23:06:27.475Z,4.85
2022-08-08T23:08:58.935Z,4.63
2022-08-08T23:11:31.222Z,4.35
2022-08-08T23:14:18.757Z,4.93
2022-08-08T23:16:57.461Z,4.45
2022-08-08T23:19:32.197Z,4.78
2022-08-08T23:22:06.462Z,4.75
2022-08-08T23:24:41.706Z,4.93
2022-08-08T23:27:11.072Z,4.97
2022-08-08T23:29:55.164Z,4.90
2022-08-08T23:32:25.225Z,4.25
2022-08-08T23:34:59.030Z,4.50
2022-08-08T23:38:00.662Z,4.82
2022-08-08T23:40:16.836Z,4.57
2022-08-08T23:42:49.823Z,5.07
2022-08-08T23:45:19.212Z,5.32
2022-08-08T23:49:05.056Z,4.55
2022-08-08T23:50:57.446Z,4.68
2022-08-08T23:53:55.722Z,4.95
2022-08-08T23:56:13.413Z,4.90
2022-08-08T23:58:51.499Z,4.32
